sensor_id;sensor_type;location;lat;lon;timestamp;pressure;altitude;pressure_sealevel;temperature;humidity
76424;BME280;65257;52.104;4.268;2023-02-26T00:01:19;101986.16;;;4.68;100.00
76424;BME280;65257;52.104;4.268;2023-02-26T00:03:48;101986.69;;;4.64;100.00
76424;BME280;65257;52.104;4.268;2023-02-26T00:06:15;101992.75;;;4.66;100.00
76424;BME280;65257;52.104;4.268;2023-02-26T00:08:40;101999.38;;;4.64;100.00
76424;BME280;65257;52.104;4.268;2023-02-26T00:11:07;101992.66;;;4.64;100.00
76424;BME280;65257;52.104;4.268;2023-02-26T00:13:37;102000.66;;;4.59;100.00
76424;BME280;65257;52.104;4.268;2023-02-26T00:16:29;101999.66;;;4.57;100.00
76424;BME280;65257;52.104;4.268;2023-02-26T00:18:57;101997.31;;;4.70;100.00
76424;BME280;65257;52.104;4.268;2023-02-26T00:21:30;102009.59;;;4.65;100.00
76424;BME280;65257;52.104;4.268;2023-02-26T00:23:56;102012.78;;;4.63;100.00
76424;BME280;65257;52.104;4.268;2023-02-26T00:26:23;102016.63;;;4.58;100.00
76424;BME280;65257;52.104;4.268;2023-02-26T00:28:59;102011.31;;;4.55;100.00
76424;BME280;65257;52.104;4.268;2023-02-26T00:31:25;102006.69;;;4.49;100.00
76424;BME280;65257;52.104;4.268;2023-02-26T00:33:52;102017.72;;;4.39;100.00
76424;BME280;65257;52.104;4.268;2023-02-26T00:41:31;102021.78;;;4.37;100.00
76424;BME280;65257;52.104;4.268;2023-02-26T00:44:03;102026.34;;;4.41;100.00
76424;BME280;65257;52.104;4.268;2023-02-26T00:46:41;102029.34;;;4.48;100.00
76424;BME280;65257;52.104;4.268;2023-02-26T00:52:01;102035.19;;;4.47;100.00
76424;BME280;65257;52.104;4.268;2023-02-26T00:54:29;102040.44;;;4.60;100.00
76424;BME280;65257;52.104;4.268;2023-02-26T00:56:57;102037.13;;;4.61;100.00
76424;BME280;65257;52.104;4.268;2023-02-26T00:59:23;102049.94;;;4.62;99.63
76424;BME280;65257;52.104;4.268;2023-02-26T01:01:50;102058.69;;;4.56;96.03
76424;BME280;65257;52.104;4.268;2023-02-26T01:04:19;102059.00;;;4.49;93.35
76424;BME280;65257;52.104;4.268;2023-02-26T01:06:52;102059.50;;;4.44;91.85
76424;BME280;65257;52.104;4.268;2023-02-26T01:09:34;102059.50;;;4.44;92.44
76424;BME280;65257;52.104;4.268;2023-02-26T01:12:04;102070.72;;;4.36;92.45
76424;BME280;65257;52.104;4.268;2023-02-26T01:14:30;102058.19;;;4.28;92.62
76424;BME280;65257;52.104;4.268;2023-02-26T01:17:12;102066.44;;;4.25;92.01
76424;BME280;65257;52.104;4.268;2023-02-26T01:19:49;102065.66;;;4.16;92.39
76424;BME280;65257;52.104;4.268;2023-02-26T01:22:22;102074.53;;;4.21;91.80
76424;BME280;65257;52.104;4.268;2023-02-26T01:24:55;102085.94;;;4.16;92.11
76424;BME280;65257;52.104;4.268;2023-02-26T01:27:23;102087.72;;;4.17;91.71
76424;BME280;65257;52.104;4.268;2023-02-26T01:29:49;102084.56;;;4.10;91.85
76424;BME280;65257;52.104;4.268;2023-02-26T01:32:20;102093.56;;;4.06;91.30
76424;BME280;65257;52.104;4.268;2023-02-26T01:34:58;102099.25;;;4.04;91.72
76424;BME280;65257;52.104;4.268;2023-02-26T01:40:45;102101.44;;;3.99;91.07
76424;BME280;65257;52.104;4.268;2023-02-26T01:43:19;102107.63;;;4.03;91.05
76424;BME280;65257;52.104;4.268;2023-02-26T01:45:56;102105.97;;;3.93;89.91
76424;BME280;65257;52.104;4.268;2023-02-26T01:48:50;102107.50;;;3.81;90.38
76424;BME280;65257;52.104;4.268;2023-02-26T01:51:18;102107.00;;;3.75;90.54
76424;BME280;65257;52.104;4.268;2023-02-26T01:53:44;102110.44;;;3.65;90.72
76424;BME280;65257;52.104;4.268;2023-02-26T01:56:16;102116.63;;;3.59;90.55
76424;BME280;65257;52.104;4.268;2023-02-26T01:58:43;102116.38;;;3.56;90.81
76424;BME280;65257;52.104;4.268;2023-02-26T02:01:15;102112.31;;;3.48;91.30
76424;BME280;65257;52.104;4.268;2023-02-26T02:03:41;102117.38;;;3.38;91.76
76424;BME280;65257;52.104;4.268;2023-02-26T02:06:15;102124.84;;;3.36;91.37
76424;BME280;65257;52.104;4.268;2023-02-26T02:08:41;102133.78;;;3.23;91.47
76424;BME280;65257;52.104;4.268;2023-02-26T02:11:08;102128.72;;;3.23;91.19
76424;BME280;65257;52.104;4.268;2023-02-26T02:16:14;102134.25;;;3.08;89.92
76424;BME280;65257;52.104;4.268;2023-02-26T02:24:19;102131.88;;;2.81;90.36
76424;BME280;65257;52.104;4.268;2023-02-26T02:26:55;102143.78;;;2.82;91.19
76424;BME280;65257;52.104;4.268;2023-02-26T02:35:10;102156.44;;;2.64;91.95
76424;BME280;65257;52.104;4.268;2023-02-26T02:37:45;102151.75;;;2.58;92.95
76424;BME280;65257;52.104;4.268;2023-02-26T02:40:31;102159.81;;;2.54;92.96
76424;BME280;65257;52.104;4.268;2023-02-26T02:48:32;102176.53;;;2.43;92.99
76424;BME280;65257;52.104;4.268;2023-02-26T02:51:02;102175.44;;;2.31;93.61
76424;BME280;65257;52.104;4.268;2023-02-26T02:53:41;102181.09;;;2.29;94.58
76424;BME280;65257;52.104;4.268;2023-02-26T02:56:23;102178.72;;;2.30;93.86
76424;BME280;65257;52.104;4.268;2023-02-26T02:58:54;102183.50;;;2.27;93.53
76424;BME280;65257;52.104;4.268;2023-02-26T03:01:22;102187.03;;;2.29;91.89
76424;BME280;65257;52.104;4.268;2023-02-26T03:04:07;102194.22;;;2.25;92.26
76424;BME280;65257;52.104;4.268;2023-02-26T03:06:38;102191.81;;;2.26;92.21
76424;BME280;65257;52.104;4.268;2023-02-26T03:09:10;102197.63;;;2.25;90.78
76424;BME280;65257;52.104;4.268;2023-02-26T03:11:45;102201.28;;;2.29;90.43
76424;BME280;65257;52.104;4.268;2023-02-26T03:14:13;102200.44;;;2.28;89.28
76424;BME280;65257;52.104;4.268;2023-02-26T03:19:37;102205.66;;;2.21;88.62
76424;BME280;65257;52.104;4.268;2023-02-26T03:22:16;102200.50;;;2.20;88.54
76424;BME280;65257;52.104;4.268;2023-02-26T03:25:08;102207.31;;;2.21;87.46
76424;BME280;65257;52.104;4.268;2023-02-26T03:27:53;102210.88;;;2.23;86.46
76424;BME280;65257;52.104;4.268;2023-02-26T03:33:01;102203.75;;;2.19;86.75
76424;BME280;65257;52.104;4.268;2023-02-26T03:38:35;102217.31;;;2.11;87.21
76424;BME280;65257;52.104;4.268;2023-02-26T03:41:09;102214.19;;;2.13;86.74
76424;BME280;65257;52.104;4.268;2023-02-26T03:43:58;102219.06;;;2.20;86.30
76424;BME280;65257;52.104;4.268;2023-02-26T03:46:49;102227.53;;;2.21;86.05
76424;BME280;65257;52.104;4.268;2023-02-26T03:49:23;102235.09;;;2.21;86.26
76424;BME280;65257;52.104;4.268;2023-02-26T03:51:59;102216.84;;;2.15;86.53
76424;BME280;65257;52.104;4.268;2023-02-26T03:54:58;102230.66;;;2.18;86.10
76424;BME280;65257;52.104;4.268;2023-02-26T03:57:25;102236.56;;;2.19;85.57
76424;BME280;65257;52.104;4.268;2023-02-26T03:59:53;102233.31;;;2.20;85.15
76424;BME280;65257;52.104;4.268;2023-02-26T04:02:24;102237.06;;;2.15;84.97
76424;BME280;65257;52.104;4.268;2023-02-26T04:05:00;102239.84;;;2.18;84.97
76424;BME280;65257;52.104;4.268;2023-02-26T04:07:35;102236.78;;;2.12;84.82
76424;BME280;65257;52.104;4.268;2023-02-26T04:10:01;102241.09;;;2.13;85.53
76424;BME280;65257;52.104;4.268;2023-02-26T04:12:27;102240.03;;;2.11;85.19
76424;BME280;65257;52.104;4.268;2023-02-26T04:14:54;102246.56;;;2.09;85.88
76424;BME280;65257;52.104;4.268;2023-02-26T04:17:20;102244.53;;;2.05;85.72
76424;BME280;65257;52.104;4.268;2023-02-26T04:19:52;102249.31;;;2.02;86.04
76424;BME280;65257;52.104;4.268;2023-02-26T04:22:18;102252.31;;;1.98;86.63
76424;BME280;65257;52.104;4.268;2023-02-26T04:24:46;102245.47;;;1.97;86.48
76424;BME280;65257;52.104;4.268;2023-02-26T04:27:14;102261.44;;;2.06;86.15
76424;BME280;65257;52.104;4.268;2023-02-26T04:29:40;102257.59;;;2.01;85.89
76424;BME280;65257;52.104;4.268;2023-02-26T04:32:05;102263.88;;;1.96;86.37
76424;BME280;65257;52.104;4.268;2023-02-26T04:34:38;102263.63;;;1.93;86.55
76424;BME280;65257;52.104;4.268;2023-02-26T04:37:06;102265.38;;;1.94;86.64
76424;BME280;65257;52.104;4.268;2023-02-26T04:39:32;102263.63;;;1.93;87.12
76424;BME280;65257;52.104;4.268;2023-02-26T04:41:57;102274.16;;;1.88;87.77
76424;BME280;65257;52.104;4.268;2023-02-26T04:44:23;102280.53;;;1.85;87.96
76424;BME280;65257;52.104;4.268;2023-02-26T04:46:48;102278.19;;;1.86;87.90
76424;BME280;65257;52.104;4.268;2023-02-26T04:49:14;102294.34;;;1.88;88.39
76424;BME280;65257;52.104;4.268;2023-02-26T04:51:43;102293.91;;;1.93;88.16
76424;BME280;65257;52.104;4.268;2023-02-26T04:54:09;102292.53;;;1.96;87.90
76424;BME280;65257;52.104;4.268;2023-02-26T04:56:37;102290.56;;;2.02;88.84
76424;BME280;65257;52.104;4.268;2023-02-26T04:59:03;102298.53;;;2.15;90.78
76424;BME280;65257;52.104;4.268;2023-02-26T05:01:28;102296.22;;;2.27;91.40
76424;BME280;65257;52.104;4.268;2023-02-26T05:03:54;102296.59;;;2.40;91.92
76424;BME280;65257;52.104;4.268;2023-02-26T05:06:19;102298.91;;;2.47;92.63
76424;BME280;65257;52.104;4.268;2023-02-26T05:08:44;102297.69;;;2.52;92.56
76424;BME280;65257;52.104;4.268;2023-02-26T05:11:18;102301.50;;;2.57;91.38
76424;BME280;65257;52.104;4.268;2023-02-26T05:13:44;102298.97;;;2.57;91.15
76424;BME280;65257;52.104;4.268;2023-02-26T05:16:10;102300.66;;;2.57;90.42
76424;BME280;65257;52.104;4.268;2023-02-26T05:18:38;102295.31;;;2.53;89.09
76424;BME280;65257;52.104;4.268;2023-02-26T05:21:04;102300.38;;;2.53;88.51
76424;BME280;65257;52.104;4.268;2023-02-26T05:23:33;102303.00;;;2.55;87.85
76424;BME280;65257;52.104;4.268;2023-02-26T05:25:59;102304.53;;;2.53;87.34
76424;BME280;65257;52.104;4.268;2023-02-26T05:28:42;102306.63;;;2.48;86.81
76424;BME280;65257;52.104;4.268;2023-02-26T05:31:12;102314.81;;;2.46;88.12
76424;BME280;65257;52.104;4.268;2023-02-26T05:33:38;102324.72;;;2.53;86.67
76424;BME280;65257;52.104;4.268;2023-02-26T05:36:10;102318.50;;;2.49;86.51
76424;BME280;65257;52.104;4.268;2023-02-26T05:38:44;102318.81;;;2.44;85.83
76424;BME280;65257;52.104;4.268;2023-02-26T05:41:10;102322.44;;;2.37;85.60
76424;BME280;65257;52.104;4.268;2023-02-26T05:43:38;102325.28;;;2.32;85.64
76424;BME280;65257;52.104;4.268;2023-02-26T05:46:06;102329.44;;;2.31;85.76
76424;BME280;65257;52.104;4.268;2023-02-26T05:48:35;102330.66;;;2.26;86.31
76424;BME280;65257;52.104;4.268;2023-02-26T05:51:00;102332.94;;;2.23;86.42
76424;BME280;65257;52.104;4.268;2023-02-26T05:53:27;102340.91;;;2.28;85.17
76424;BME280;65257;52.104;4.268;2023-02-26T05:55:52;102343.91;;;2.24;86.11
76424;BME280;65257;52.104;4.268;2023-02-26T05:58:23;102346.41;;;2.24;85.66
76424;BME280;65257;52.104;4.268;2023-02-26T06:00:49;102352.22;;;2.23;85.81
76424;BME280;65257;52.104;4.268;2023-02-26T06:03:14;102354.34;;;2.18;86.12
76424;BME280;65257;52.104;4.268;2023-02-26T06:05:42;102354.59;;;2.21;85.74
76424;BME280;65257;52.104;4.268;2023-02-26T06:08:10;102361.75;;;2.17;86.26
76424;BME280;65257;52.104;4.268;2023-02-26T06:10:39;102362.50;;;2.16;86.54
76424;BME280;65257;52.104;4.268;2023-02-26T06:13:05;102364.88;;;2.14;86.93
76424;BME280;65257;52.104;4.268;2023-02-26T06:15:31;102373.38;;;2.06;87.33
76424;BME280;65257;52.104;4.268;2023-02-26T06:17:59;102371.75;;;2.07;87.65
76424;BME280;65257;52.104;4.268;2023-02-26T06:20:24;102387.63;;;2.06;88.74
76424;BME280;65257;52.104;4.268;2023-02-26T06:22:53;102394.16;;;2.04;88.91
76424;BME280;65257;52.104;4.268;2023-02-26T06:25:18;102400.72;;;2.02;89.58
76424;BME280;65257;52.104;4.268;2023-02-26T06:27:44;102401.31;;;2.08;90.07
76424;BME280;65257;52.104;4.268;2023-02-26T06:30:13;102399.94;;;2.11;90.52
76424;BME280;65257;52.104;4.268;2023-02-26T06:32:42;102408.28;;;2.10;91.50
76424;BME280;65257;52.104;4.268;2023-02-26T06:35:09;102402.16;;;2.08;91.62
76424;BME280;65257;52.104;4.268;2023-02-26T06:37:35;102412.25;;;2.08;92.56
76424;BME280;65257;52.104;4.268;2023-02-26T06:40:01;102409.91;;;2.10;92.54
76424;BME280;65257;52.104;4.268;2023-02-26T06:42:31;102417.03;;;2.05;92.37
76424;BME280;65257;52.104;4.268;2023-02-26T06:44:57;102425.66;;;1.99;91.95
76424;BME280;65257;52.104;4.268;2023-02-26T06:47:23;102426.84;;;1.94;92.11
76424;BME280;65257;52.104;4.268;2023-02-26T06:49:49;102430.16;;;1.93;92.25
76424;BME280;65257;52.104;4.268;2023-02-26T06:52:34;102438.16;;;1.88;92.25
76424;BME280;65257;52.104;4.268;2023-02-26T06:55:00;102434.59;;;1.86;91.80
76424;BME280;65257;52.104;4.268;2023-02-26T06:57:25;102438.63;;;1.84;91.95
76424;BME280;65257;52.104;4.268;2023-02-26T06:59:51;102442.47;;;1.81;92.30
76424;BME280;65257;52.104;4.268;2023-02-26T07:02:21;102445.59;;;1.78;93.26
76424;BME280;65257;52.104;4.268;2023-02-26T07:04:51;102454.78;;;1.86;92.91
76424;BME280;65257;52.104;4.268;2023-02-26T07:07:17;102457.31;;;1.86;92.90
76424;BME280;65257;52.104;4.268;2023-02-26T07:09:44;102457.16;;;1.85;92.65
76424;BME280;65257;52.104;4.268;2023-02-26T07:12:09;102465.91;;;1.88;92.92
76424;BME280;65257;52.104;4.268;2023-02-26T07:14:38;102466.94;;;1.90;93.13
76424;BME280;65257;52.104;4.268;2023-02-26T07:17:11;102466.94;;;1.90;92.60
76424;BME280;65257;52.104;4.268;2023-02-26T07:19:45;102463.38;;;1.88;93.40
76424;BME280;65257;52.104;4.268;2023-02-26T07:22:15;102471.25;;;1.92;93.33
76424;BME280;65257;52.104;4.268;2023-02-26T07:24:44;102469.03;;;1.95;93.78
76424;BME280;65257;52.104;4.268;2023-02-26T07:27:09;102481.47;;;1.93;94.66
76424;BME280;65257;52.104;4.268;2023-02-26T07:29:35;102478.53;;;1.97;94.74
76424;BME280;65257;52.104;4.268;2023-02-26T07:32:00;102490.97;;;1.96;95.01
76424;BME280;65257;52.104;4.268;2023-02-26T07:34:26;102499.88;;;2.01;95.97
76424;BME280;65257;52.104;4.268;2023-02-26T07:36:52;102493.06;;;2.00;95.10
76424;BME280;65257;52.104;4.268;2023-02-26T07:39:17;102502.56;;;2.02;95.07
76424;BME280;65257;52.104;4.268;2023-02-26T07:41:43;102509.06;;;2.09;95.09
76424;BME280;65257;52.104;4.268;2023-02-26T07:44:08;102501.50;;;2.09;95.00
76424;BME280;65257;52.104;4.268;2023-02-26T07:46:34;102512.00;;;2.22;94.19
76424;BME280;65257;52.104;4.268;2023-02-26T07:49:02;102507.25;;;2.25;93.32
76424;BME280;65257;52.104;4.268;2023-02-26T07:51:28;102505.47;;;2.32;93.03
76424;BME280;65257;52.104;4.268;2023-02-26T07:53:53;102513.44;;;2.37;93.02
76424;BME280;65257;52.104;4.268;2023-02-26T07:56:19;102509.28;;;2.46;91.99
76424;BME280;65257;52.104;4.268;2023-02-26T07:58:44;102516.50;;;2.60;90.66
76424;BME280;65257;52.104;4.268;2023-02-26T08:01:09;102517.81;;;2.65;90.39
76424;BME280;65257;52.104;4.268;2023-02-26T08:03:35;102513.13;;;2.87;88.95
76424;BME280;65257;52.104;4.268;2023-02-26T08:06:01;102516.84;;;4.11;84.53
76424;BME280;65257;52.104;4.268;2023-02-26T08:08:27;102509.25;;;5.29;77.20
76424;BME280;65257;52.104;4.268;2023-02-26T08:10:58;102516.44;;;5.75;72.81
76424;BME280;65257;52.104;4.268;2023-02-26T08:13:24;102516.09;;;6.44;69.40
76424;BME280;65257;52.104;4.268;2023-02-26T08:15:49;102513.25;;;6.94;66.64
76424;BME280;65257;52.104;4.268;2023-02-26T08:18:15;102517.59;;;7.40;65.39
76424;BME280;65257;52.104;4.268;2023-02-26T08:20:40;102531.63;;;7.91;62.25
76424;BME280;65257;52.104;4.268;2023-02-26T08:23:05;102529.38;;;7.61;62.50
76424;BME280;65257;52.104;4.268;2023-02-26T08:25:31;102541.78;;;7.68;61.62
76424;BME280;65257;52.104;4.268;2023-02-26T08:27:57;102543.94;;;7.85;61.75
76424;BME280;65257;52.104;4.268;2023-02-26T08:30:23;102544.47;;;7.70;62.03
76424;BME280;65257;52.104;4.268;2023-02-26T08:32:48;102546.53;;;8.32;61.25
76424;BME280;65257;52.104;4.268;2023-02-26T08:35:17;102547.16;;;8.17;60.88
76424;BME280;65257;52.104;4.268;2023-02-26T08:37:46;102542.78;;;8.99;60.44
76424;BME280;65257;52.104;4.268;2023-02-26T08:40:12;102548.00;;;8.53;59.14
76424;BME280;65257;52.104;4.268;2023-02-26T08:42:40;102555.75;;;8.66;59.15
76424;BME280;65257;52.104;4.268;2023-02-26T08:45:09;102546.72;;;9.19;58.96
76424;BME280;65257;52.104;4.268;2023-02-26T08:47:43;102561.44;;;8.98;58.42
76424;BME280;65257;52.104;4.268;2023-02-26T08:50:19;102559.66;;;9.47;57.42
76424;BME280;65257;52.104;4.268;2023-02-26T08:52:50;102552.91;;;9.73;56.92
76424;BME280;65257;52.104;4.268;2023-02-26T08:55:16;102566.94;;;9.54;55.94
76424;BME280;65257;52.104;4.268;2023-02-26T08:57:51;102567.88;;;9.42;56.31
76424;BME280;65257;52.104;4.268;2023-02-26T09:00:17;102574.13;;;10.10;55.23
76424;BME280;65257;52.104;4.268;2023-02-26T09:02:43;102567.84;;;10.18;53.61
76424;BME280;65257;52.104;4.268;2023-02-26T09:05:09;102572.78;;;10.41;53.72
76424;BME280;65257;52.104;4.268;2023-02-26T09:07:36;102577.41;;;10.47;52.22
76424;BME280;65257;52.104;4.268;2023-02-26T09:10:11;102574.81;;;11.01;50.95
76424;BME280;65257;52.104;4.268;2023-02-26T09:13:05;102564.63;;;11.30;48.26
76424;BME280;65257;52.104;4.268;2023-02-26T09:15:30;102587.16;;;10.39;49.57
76424;BME280;65257;52.104;4.268;2023-02-26T09:17:55;102582.72;;;10.91;48.33
76424;BME280;65257;52.104;4.268;2023-02-26T09:20:22;102585.28;;;9.73;46.94
76424;BME280;65257;52.104;4.268;2023-02-26T09:22:47;102601.25;;;10.74;44.16
76424;BME280;65257;52.104;4.268;2023-02-26T09:25:15;102597.72;;;10.06;44.93
76424;BME280;65257;52.104;4.268;2023-02-26T09:27:59;102607.00;;;10.30;43.87
76424;BME280;65257;52.104;4.268;2023-02-26T09:30:24;102607.94;;;10.85;42.23
76424;BME280;65257;52.104;4.268;2023-02-26T09:32:50;102616.53;;;11.13;39.26
76424;BME280;65257;52.104;4.268;2023-02-26T09:35:15;102618.63;;;10.38;39.51
76424;BME280;65257;52.104;4.268;2023-02-26T09:37:41;102616.69;;;11.01;39.44
76424;BME280;65257;52.104;4.268;2023-02-26T09:40:20;102634.69;;;9.98;39.60
76424;BME280;65257;52.104;4.268;2023-02-26T09:45:45;102627.78;;;9.97;40.29
76424;BME280;65257;52.104;4.268;2023-02-26T09:48:15;102636.94;;;10.44;40.21
76424;BME280;65257;52.104;4.268;2023-02-26T09:53:20;102639.75;;;11.29;36.85
76424;BME280;65257;52.104;4.268;2023-02-26T09:55:51;102644.22;;;10.64;38.35
76424;BME280;65257;52.104;4.268;2023-02-26T09:58:42;102641.34;;;10.73;38.38
76424;BME280;65257;52.104;4.268;2023-02-26T10:06:22;102653.03;;;10.96;37.25
76424;BME280;65257;52.104;4.268;2023-02-26T10:09:19;102658.00;;;9.65;41.23
76424;BME280;65257;52.104;4.268;2023-02-26T10:12:20;102672.25;;;8.54;45.02
76424;BME280;65257;52.104;4.268;2023-02-26T10:15:05;102662.38;;;9.29;44.07
76424;BME280;65257;52.104;4.268;2023-02-26T10:20:26;102667.47;;;9.79;41.86
76424;BME280;65257;52.104;4.268;2023-02-26T10:26:21;102679.84;;;10.88;38.91
76424;BME280;65257;52.104;4.268;2023-02-26T10:28:55;102676.88;;;10.95;38.06
76424;BME280;65257;52.104;4.268;2023-02-26T10:32:05;102675.09;;;9.90;39.36
76424;BME280;65257;52.104;4.268;2023-02-26T10:34:38;102681.09;;;10.04;40.73
76424;BME280;65257;52.104;4.268;2023-02-26T10:42:27;102690.41;;;9.53;42.85
76424;BME280;65257;52.104;4.268;2023-02-26T10:48:00;102694.84;;;8.84;45.73
76424;BME280;65257;52.104;4.268;2023-02-26T10:50:30;102704.53;;;8.65;45.90
76424;BME280;65257;52.104;4.268;2023-02-26T10:52:58;102710.81;;;9.05;45.44
76424;BME280;65257;52.104;4.268;2023-02-26T10:55:38;102710.41;;;8.64;45.29
76424;BME280;65257;52.104;4.268;2023-02-26T10:58:15;102705.41;;;8.77;45.82
76424;BME280;65257;52.104;4.268;2023-02-26T11:00:44;102706.16;;;8.99;46.63
76424;BME280;65257;52.104;4.268;2023-02-26T11:03:20;102694.50;;;10.00;44.28
76424;BME280;65257;52.104;4.268;2023-02-26T11:05:49;102705.81;;;10.41;40.86
76424;BME280;65257;52.104;4.268;2023-02-26T11:08:17;102714.72;;;9.48;42.26
76424;BME280;65257;52.104;4.268;2023-02-26T11:10:58;102703.09;;;9.39;44.06
76424;BME280;65257;52.104;4.268;2023-02-26T11:13:26;102723.03;;;8.51;46.69
76424;BME280;65257;52.104;4.268;2023-02-26T11:15:55;102720.34;;;7.93;48.89
76424;BME280;65257;52.104;4.268;2023-02-26T11:18:26;102715.00;;;9.27;46.85
76424;BME280;65257;52.104;4.268;2023-02-26T11:20:58;102727.06;;;10.02;42.07
76424;BME280;65257;52.104;4.268;2023-02-26T11:23:29;102719.94;;;8.66;46.41
76424;BME280;65257;52.104;4.268;2023-02-26T11:26:06;102709.84;;;10.00;44.61
76424;BME280;65257;52.104;4.268;2023-02-26T11:28:46;102682.41;;;10.48;41.85
76424;BME280;65257;52.104;4.268;2023-02-26T11:31:23;102702.28;;;10.39;40.82
76424;BME280;65257;52.104;4.268;2023-02-26T11:33:58;102719.00;;;10.34;42.09
76424;BME280;65257;52.104;4.268;2023-02-26T11:36:36;102705.25;;;11.39;39.31
76424;BME280;65257;52.104;4.268;2023-02-26T11:41:40;102711.63;;;10.01;43.66
76424;BME280;65257;52.104;4.268;2023-02-26T11:44:11;102691.06;;;9.75;43.97
76424;BME280;65257;52.104;4.268;2023-02-26T11:46:49;102688.91;;;9.56;45.29
76424;BME280;65257;52.104;4.268;2023-02-26T11:49:24;102696.19;;;8.79;47.22
76424;BME280;65257;52.104;4.268;2023-02-26T11:52:16;102696.63;;;10.19;47.89
76424;BME280;65257;52.104;4.268;2023-02-26T11:54:58;102694.72;;;10.93;42.33
76424;BME280;65257;52.104;4.268;2023-02-26T11:57:32;102692.63;;;11.97;38.56
76424;BME280;65257;52.104;4.268;2023-02-26T12:00:45;102700.09;;;10.19;39.84
76424;BME280;65257;52.104;4.268;2023-02-26T12:03:06;102701.88;;;10.33;41.17
76424;BME280;65257;52.104;4.268;2023-02-26T12:05:35;102687.31;;;10.72;39.23
76424;BME280;65257;52.104;4.268;2023-02-26T12:08:16;102690.16;;;10.76;39.62
76424;BME280;65257;52.104;4.268;2023-02-26T12:13:30;102701.47;;;11.19;37.44
76424;BME280;65257;52.104;4.268;2023-02-26T12:16:18;102690.75;;;11.11;38.17
76424;BME280;65257;52.104;4.268;2023-02-26T12:24:43;102691.09;;;11.58;35.98
76424;BME280;65257;52.104;4.268;2023-02-26T12:36:13;102688.69;;;11.06;41.09
76424;BME280;65257;52.104;4.268;2023-02-26T12:47:50;102690.91;;;9.85;42.52
76424;BME280;65257;52.104;4.268;2023-02-26T12:53:24;102694.75;;;9.67;46.42
76424;BME280;65257;52.104;4.268;2023-02-26T13:01:21;102701.28;;;10.50;42.95
76424;BME280;65257;52.104;4.268;2023-02-26T13:14:37;102704.22;;;11.22;39.01
76424;BME280;65257;52.104;4.268;2023-02-26T13:20:09;102696.47;;;11.35;39.28
76424;BME280;65257;52.104;4.268;2023-02-26T13:23:01;102706.56;;;11.32;39.48
76424;BME280;65257;52.104;4.268;2023-02-26T13:25:50;102695.31;;;11.30;40.49
76424;BME280;65257;52.104;4.268;2023-02-26T13:31:08;102697.38;;;10.68;42.28
76424;BME280;65257;52.104;4.268;2023-02-26T13:33:35;102689.28;;;10.36;43.81
76424;BME280;65257;52.104;4.268;2023-02-26T13:36:06;102690.56;;;10.56;44.50
76424;BME280;65257;52.104;4.268;2023-02-26T13:47:14;102686.31;;;10.30;48.71
76424;BME280;65257;52.104;4.268;2023-02-26T13:50:05;102687.06;;;9.91;52.68
76424;BME280;65257;52.104;4.268;2023-02-26T13:52:52;102684.63;;;9.07;52.90
76424;BME280;65257;52.104;4.268;2023-02-26T13:55:50;102676.88;;;9.06;56.76
76424;BME280;65257;52.104;4.268;2023-02-26T13:58:53;102686.22;;;8.59;57.75
76424;BME280;65257;52.104;4.268;2023-02-26T14:01:27;102691.78;;;8.65;59.44
76424;BME280;65257;52.104;4.268;2023-02-26T14:07:10;102684.06;;;8.18;62.12
76424;BME280;65257;52.104;4.268;2023-02-26T14:09:46;102687.03;;;8.25;62.33
76424;BME280;65257;52.104;4.268;2023-02-26T14:12:32;102684.91;;;8.75;54.59
76424;BME280;65257;52.104;4.268;2023-02-26T14:22:56;102680.19;;;8.24;55.80
76424;BME280;65257;52.104;4.268;2023-02-26T14:27:49;102688.72;;;7.79;58.50
76424;BME280;65257;52.104;4.268;2023-02-26T14:30:27;102694.63;;;7.68;64.60
76424;BME280;65257;52.104;4.268;2023-02-26T14:35:25;102695.44;;;7.24;63.94
76424;BME280;65257;52.104;4.268;2023-02-26T14:37:56;102699.50;;;7.22;68.73
76424;BME280;65257;52.104;4.268;2023-02-26T14:40:23;102704.97;;;6.94;66.65
76424;BME280;65257;52.104;4.268;2023-02-26T14:42:51;102703.88;;;7.13;65.57
76424;BME280;65257;52.104;4.268;2023-02-26T14:45:38;102688.25;;;7.30;67.69
76424;BME280;65257;52.104;4.268;2023-02-26T14:48:11;102693.84;;;7.36;64.22
76424;BME280;65257;52.104;4.268;2023-02-26T15:08:11;102699.28;;;7.19;59.16
76424;BME280;65257;52.104;4.268;2023-02-26T15:10:55;102705.44;;;7.11;62.00
76424;BME280;65257;52.104;4.268;2023-02-26T15:13:32;102703.63;;;7.10;65.82
76424;BME280;65257;52.104;4.268;2023-02-26T15:17:08;102706.22;;;7.00;70.83
76424;BME280;65257;52.104;4.268;2023-02-26T15:22:05;102709.13;;;6.72;64.23
76424;BME280;65257;52.104;4.268;2023-02-26T15:24:29;102712.72;;;6.64;64.08
76424;BME280;65257;52.104;4.268;2023-02-26T15:27:04;102712.69;;;6.74;63.41
76424;BME280;65257;52.104;4.268;2023-02-26T15:29:35;102716.50;;;6.69;65.61
76424;BME280;65257;52.104;4.268;2023-02-26T15:32:28;102721.34;;;6.66;67.33
76424;BME280;65257;52.104;4.268;2023-02-26T15:34:59;102718.16;;;6.69;65.75
76424;BME280;65257;52.104;4.268;2023-02-26T15:37:29;102714.22;;;6.72;64.46
76424;BME280;65257;52.104;4.268;2023-02-26T15:40:04;102719.53;;;6.75;63.31
76424;BME280;65257;52.104;4.268;2023-02-26T15:42:34;102726.97;;;6.62;62.71
76424;BME280;65257;52.104;4.268;2023-02-26T15:45:05;102717.19;;;6.57;62.22
76424;BME280;65257;52.104;4.268;2023-02-26T15:47:38;102733.06;;;6.54;61.02
76424;BME280;65257;52.104;4.268;2023-02-26T15:50:05;102727.72;;;6.51;57.98
76424;BME280;65257;52.104;4.268;2023-02-26T15:52:34;102724.44;;;6.52;58.32
76424;BME280;65257;52.104;4.268;2023-02-26T15:55:13;102724.56;;;6.54;61.73
76424;BME280;65257;52.104;4.268;2023-02-26T15:57:40;102730.00;;;6.58;62.59
76424;BME280;65257;52.104;4.268;2023-02-26T16:00:09;102731.78;;;6.59;61.77
76424;BME280;65257;52.104;4.268;2023-02-26T16:02:35;102718.19;;;6.49;60.07
76424;BME280;65257;52.104;4.268;2023-02-26T16:05:09;102736.13;;;6.50;58.14